Time;durP1;ratioP1;P1;durP2;ratioP2;P2;SDS_P1;SDS_P2;PMS_P1;PMS_P2;Temp;Humidity;BMP_temperature;BMP_pressure;BME280_temperature;BME280_humidity;BME280_pressure;Samples;Min_cycle;Max_cycle;Signal;HPM_P1;HPM_P2
2022/10/22 00:00:52;;;;;;;;;;;;;;;;;;4962863;28;19918;-57
2022/10/22 00:03:17;;;;;;;;;;;;;;;;;;4960315;28;20493;-57
2022/10/22 00:05:42;;;;;;;;;;;;;;;;;;4968718;28;19987;-57
2022/10/22 00:08:07;;;;;;;;;;;;;;;;;;4966249;28;19914;-57
2022/10/22 00:10:33;;;;;;;;;;;;;;;;;;4967708;28;20017;-57
2022/10/22 00:12:58;;;;;;;;;;;;;;;;;;4965472;28;20346;-57
2022/10/22 00:15:24;;;;;;;;;;;;;;;;;;4963556;28;20002;-57
2022/10/22 00:17:49;;;;;;;;;;;;;;;;;;4962620;28;20445;-57
2022/10/22 00:20:14;;;;;;;;;;;;;;;;;;4966073;28;19918;-57
2022/10/22 00:22:40;;;;;;;;;;;;;;;;;;4959805;28;20347;-57
2022/10/22 00:25:05;;;;;;;;;;;;;;;;;;4962078;28;19914;-56
2022/10/22 00:27:30;;;;;;;;;;;;;;;;;;4969516;28;19918;-57
2022/10/22 00:29:55;;;;;;;;;;;;;;;;;;4961148;28;19941;-57
2022/10/22 00:32:21;;;;;;;;;;;;;;;;;;4962234;28;19914;-56
2022/10/22 00:34:46;;;;;;;;;;;;;;;;;;4963854;28;20396;-57
2022/10/22 00:37:11;;;;;;;;;;;;;;;;;;4968889;28;19917;-57
2022/10/22 00:39:37;;;;;;;;;;;;;;;;;;4960187;28;19945;-56
2022/10/22 00:42:02;;;;;;;;;;;;;;;;;;4972133;28;20001;-56
2022/10/22 00:44:46;;;;;;;;;;;;;;;;;;4963548;28;19918;-57
2022/10/22 00:47:11;;;;;;;;;;;;;;;;;;4964158;28;19918;-57
2022/10/22 00:49:37;;;;;;;;;;;;;;;;;;4972096;28;20009;-57
2022/10/22 00:52:02;;;;;;;;;;;;;;;;;;4960642;28;20383;-56
2022/10/22 00:54:27;;;;;;;;;;;;;;;;;;4956302;28;19922;-56
2022/10/22 00:56:53;;;;;;;;;;;;;;;;;;4953152;28;19926;-55
2022/10/22 00:59:18;;;;;;;;;;;;;;;;;;4959368;28;19923;-56
2022/10/22 01:01:44;;;;;;;;;;;;;;;;;;4957784;28;19917;-56
2022/10/22 01:04:09;;;;;;;;;;;;;;;;;;4961350;28;20296;-55
2022/10/22 01:06:34;;;;;;;;;;;;;;;;;;4961534;28;19925;-55
2022/10/22 01:09:35;;;;;;;;;;;;;;;;;;4958073;28;19957;-56
2022/10/22 01:12:19;;;;;;;;;;;;;;;;;;4963226;28;20000;-55
2022/10/22 01:15:04;;;;;;;;;;;;;;;;;;4961168;28;19971;-56
2022/10/22 01:17:32;;;;;;;;;;;;;;;;;;4968265;28;19918;-56
2022/10/22 01:19:58;;;;;;;;;;;;;;;;;;4956851;28;20008;-56
2022/10/22 01:22:33;;;;;;;;;;;;;;;;;;4961350;28;20013;-56
2022/10/22 01:25:16;;;;;;;;;;;;;;;;;;4962686;28;19921;-56
2022/10/22 01:27:51;;;;;;;;;;;;;;;;;;4968121;28;19934;-57
2022/10/22 01:30:16;;;;;;;;;;;;;;;;;;4964454;28;19922;-57
2022/10/22 01:32:45;;;;;;;;;;;;;;;;;;4957603;28;20282;-57
2022/10/22 01:35:13;;;;;;;;;;;;;;;;;;4961045;28;19922;-57
2022/10/22 01:37:44;;;;;;;;;;;;;;;;;;4960143;28;19995;-56
2022/10/22 01:40:09;;;;;;;;;;;;;;;;;;4958480;28;19919;-56
2022/10/22 01:42:35;;;;;;;;;;;;;;;;;;4963215;28;19929;-56
2022/10/22 01:45:00;;;;;;;;;;;;;;;;;;4969302;28;19925;-56
2022/10/22 01:47:34;;;;;;;;;;;;;;;;;;4958011;28;20372;-56
2022/10/22 01:50:08;;;;;;;;;;;;;;;;;;4960495;28;19918;-56
2022/10/22 01:52:44;;;;;;;;;;;;;;;;;;4961924;28;19922;-56
2022/10/22 01:55:24;;;;;;;;;;;;;;;;;;4956357;28;19922;-56
2022/10/22 01:58:00;;;;;;;;;;;;;;;;;;4959312;28;19938;-55
2022/10/22 02:00:26;;;;;;;;;;;;;;;;;;4966414;28;19918;-56
2022/10/22 02:02:54;;;;;;;;;;;;;;;;;;4964795;28;19925;-56
2022/10/22 02:05:35;;;;;;;;;;;;;;;;;;4960893;28;20402;-55
2022/10/22 02:08:00;;;;;;;;;;;;;;;;;;4959470;28;19945;-55
2022/10/22 02:10:26;;;;;;;;;;;;;;;;;;4958359;28;19922;-55
2022/10/22 02:12:53;;;;;;;;;;;;;;;;;;4958350;28;19995;-54
2022/10/22 02:15:19;;;;;;;;;;;;;;;;;;4963795;28;20009;-54
2022/10/22 02:17:45;;;;;;;;;;;;;;;;;;4963241;28;19929;-55
2022/10/22 02:20:21;;;;;;;;;;;;;;;;;;4959642;28;20332;-55
2022/10/22 02:22:47;;;;;;;;;;;;;;;;;;4955502;28;19927;-54
2022/10/22 02:25:12;;;;;;;;;;;;;;;;;;4961782;28;19972;-55
2022/10/22 02:28:00;;;;;;;;;;;;;;;;;;4958090;28;20006;-54
2022/10/22 02:30:26;;;;;;;;;;;;;;;;;;4975280;28;19918;-54
2022/10/22 02:33:10;;;;;;;;;;;;;;;;;;4961955;28;19926;-55
2022/10/22 02:35:36;;;;;;;;;;;;;;;;;;4967458;28;20318;-55
2022/10/22 02:38:02;;;;;;;;;;;;;;;;;;4970971;28;19957;-55
2022/10/22 02:40:29;;;;;;;;;;;;;;;;;;4962947;28;19956;-54
2022/10/22 02:42:54;;;;;;;;;;;;;;;;;;4973307;28;20287;-54
2022/10/22 02:45:20;;;;;;;;;;;;;;;;;;4975330;28;20005;-55
2022/10/22 02:47:46;;;;;;;;;;;;;;;;;;4957843;28;20311;-55
2022/10/22 02:50:12;;;;;;;;;;;;;;;;;;4956833;28;19919;-54
2022/10/22 02:52:37;;;;;;;;;;;;;;;;;;4950987;28;19926;-54
2022/10/22 02:55:03;;;;;;;;;;;;;;;;;;4958736;28;20436;-54
2022/10/22 02:57:29;;;;;;;;;;;;;;;;;;4960365;28;19925;-55
2022/10/22 02:59:54;;;;;;;;;;;;;;;;;;4959937;28;20380;-54
2022/10/22 03:02:19;;;;;;;;;;;;;;;;;;4960950;28;19923;-54
2022/10/22 03:04:44;;;;;;;;;;;;;;;;;;4960885;28;19922;-55
2022/10/22 03:07:10;;;;;;;;;;;;;;;;;;4958246;28;19976;-54
2022/10/22 03:09:35;;;;;;;;;;;;;;;;;;4961816;28;19934;-54
2022/10/22 03:12:00;;;;;;;;;;;;;;;;;;4957197;28;19926;-54
2022/10/22 03:14:25;;;;;;;;;;;;;;;;;;4963714;28;19941;-54
2022/10/22 03:16:51;;;;;;;;;;;;;;;;;;4967021;28;20284;-54
2022/10/22 03:19:16;;;;;;;;;;;;;;;;;;4965218;28;19925;-54
2022/10/22 03:21:41;;;;;;;;;;;;;;;;;;4967070;28;19965;-54
2022/10/22 03:24:09;;;;;;;;;;;;;;;;;;4967865;28;20369;-54
2022/10/22 03:26:35;;;;;;;;;;;;;;;;;;4975924;28;19918;-54
2022/10/22 03:29:00;;;;;;;;;;;;;;;;;;4964548;28;19952;-55
2022/10/22 03:31:26;;;;;;;;;;;;;;;;;;4962237;28;20406;-54
2022/10/22 03:33:51;;;;;;;;;;;;;;;;;;4959532;28;19934;-54
2022/10/22 03:36:16;;;;;;;;;;;;;;;;;;4961552;28;19961;-55
2022/10/22 03:38:42;;;;;;;;;;;;;;;;;;4965297;28;19918;-55
2022/10/22 03:41:07;;;;;;;;;;;;;;;;;;4960800;28;20346;-54
2022/10/22 03:43:34;;;;;;;;;;;;;;;;;;4962825;28;19918;-54
2022/10/22 03:45:59;;;;;;;;;;;;;;;;;;4967657;28;19957;-54
2022/10/22 03:48:25;;;;;;;;;;;;;;;;;;4963973;28;20106;-55
2022/10/22 03:50:50;;;;;;;;;;;;;;;;;;4966060;28;20364;-55
2022/10/22 03:53:15;;;;;;;;;;;;;;;;;;4967786;28;19918;-55
2022/10/22 03:55:41;;;;;;;;;;;;;;;;;;4963108;28;20020;-55
2022/10/22 03:58:06;;;;;;;;;;;;;;;;;;4959909;28;19918;-55
2022/10/22 04:00:33;;;;;;;;;;;;;;;;;;4967060;28;19925;-55
2022/10/22 04:02:58;;;;;;;;;;;;;;;;;;4960800;28;20009;-55
2022/10/22 04:05:24;;;;;;;;;;;;;;;;;;4968404;28;20121;-55
2022/10/22 04:07:49;;;;;;;;;;;;;;;;;;4961950;28;20387;-54
2022/10/22 04:10:15;;;;;;;;;;;;;;;;;;4965523;28;19972;-55
2022/10/22 04:12:40;;;;;;;;;;;;;;;;;;4964445;28;20308;-55
2022/10/22 04:15:06;;;;;;;;;;;;;;;;;;4957452;28;20005;-55
2022/10/22 04:17:35;;;;;;;;;;;;;;;;;;4962117;28;19930;-54
2022/10/22 04:20:00;;;;;;;;;;;;;;;;;;4968860;28;20604;-55
2022/10/22 04:22:25;;;;;;;;;;;;;;;;;;4959101;28;19926;-54
2022/10/22 04:24:51;;;;;;;;;;;;;;;;;;4963871;28;19925;-55
2022/10/22 04:27:16;;;;;;;;;;;;;;;;;;4962391;28;20383;-54
2022/10/22 04:29:41;;;;;;;;;;;;;;;;;;4971515;28;19918;-55
2022/10/22 04:32:07;;;;;;;;;;;;;;;;;;4968837;28;19922;-55
2022/10/22 04:34:32;;;;;;;;;;;;;;;;;;4964135;28;19918;-55
2022/10/22 04:36:57;;;;;;;;;;;;;;;;;;4959984;28;19961;-54
2022/10/22 04:39:22;;;;;;;;;;;;;;;;;;4958110;28;19971;-55
2022/10/22 04:41:48;;;;;;;;;;;;;;;;;;4961198;28;19918;-55
2022/10/22 04:44:13;;;;;;;;;;;;;;;;;;4965257;28;19958;-54
2022/10/22 04:46:38;;;;;;;;;;;;;;;;;;4962825;28;19923;-55
2022/10/22 04:49:04;;;;;;;;;;;;;;;;;;4966447;28;19918;-55
2022/10/22 04:51:29;;;;;;;;;;;;;;;;;;4961975;28;19933;-55
2022/10/22 04:53:55;;;;;;;;;;;;;;;;;;4962996;28;19976;-55
2022/10/22 04:56:21;;;;;;;;;;;;;;;;;;4958985;28;19922;-55
2022/10/22 04:58:48;;;;;;;;;;;;;;;;;;4966511;28;19921;-55
2022/10/22 05:01:20;;;;;;;;;;;;;;;;;;4964823;28;19925;-55
2022/10/22 05:03:47;;;;;;;;;;;;;;;;;;4959688;28;19937;-57
2022/10/22 05:06:12;;;;;;;;;;;;;;;;;;4967134;28;20346;-57
2022/10/22 05:08:38;;;;;;;;;;;;;;;;;;4960438;28;20009;-56
2022/10/22 05:11:10;;;;;;;;;;;;;;;;;;4962717;28;20380;-55
2022/10/22 05:13:35;;;;;;;;;;;;;;;;;;4963558;28;19963;-56
2022/10/22 05:16:01;;;;;;;;;;;;;;;;;;4962855;28;19922;-56
2022/10/22 05:18:26;;;;;;;;;;;;;;;;;;4965904;28;19922;-57
2022/10/22 05:20:51;;;;;;;;;;;;;;;;;;4965888;28;19918;-57
2022/10/22 05:23:16;;;;;;;;;;;;;;;;;;4965173;28;20288;-57
2022/10/22 05:25:42;;;;;;;;;;;;;;;;;;4968287;28;19918;-57
2022/10/22 05:28:07;;;;;;;;;;;;;;;;;;4969452;28;19918;-57
2022/10/22 05:30:32;;;;;;;;;;;;;;;;;;4971197;28;20390;-57
2022/10/22 05:32:57;;;;;;;;;;;;;;;;;;4971208;28;19918;-57
2022/10/22 05:35:23;;;;;;;;;;;;;;;;;;4955039;28;20372;-57
2022/10/22 05:37:48;;;;;;;;;;;;;;;;;;4961447;28;19926;-57
2022/10/22 05:40:13;;;;;;;;;;;;;;;;;;4976045;28;19928;-57
2022/10/22 05:42:38;;;;;;;;;;;;;;;;;;4972489;28;19917;-57
2022/10/22 05:45:04;;;;;;;;;;;;;;;;;;4957828;28;19918;-57
2022/10/22 05:47:29;;;;;;;;;;;;;;;;;;4958652;28;19925;-57
2022/10/22 05:49:56;;;;;;;;;;;;;;;;;;4955779;28;20291;-57
2022/10/22 05:52:21;;;;;;;;;;;;;;;;;;4954459;28;20293;-57
2022/10/22 05:54:47;;;;;;;;;;;;;;;;;;4961167;28;20016;-57
2022/10/22 05:57:12;;;;;;;;;;;;;;;;;;4960185;28;19922;-57
2022/10/22 05:59:37;;;;;;;;;;;;;;;;;;4961875;28;20300;-57
2022/10/22 06:02:02;;;;;;;;;;;;;;;;;;4960511;28;19918;-57
2022/10/22 06:04:28;;;;;;;;;;;;;;;;;;4967686;28;20400;-57
2022/10/22 06:06:53;;;;;;;;;;;;;;;;;;4964792;28;19926;-57
2022/10/22 06:09:23;;;;;;;;;;;;;;;;;;4963125;28;19919;-57
2022/10/22 06:11:49;;;;;;;;;;;;;;;;;;4967163;28;19918;-57
2022/10/22 06:14:15;;;;;;;;;;;;;;;;;;4964816;28;19926;-57
2022/10/22 06:16:41;;;;;;;;;;;;;;;;;;4967411;28;19930;-57
2022/10/22 06:19:06;;;;;;;;;;;;;;;;;;4960949;28;19961;-57
2022/10/22 06:21:32;;;;;;;;;;;;;;;;;;4962668;28;20108;-57
2022/10/22 06:23:58;;;;;;;;;;;;;;;;;;4960111;28;19919;-57
2022/10/22 06:26:23;;;;;;;;;;;;;;;;;;4960104;28;19926;-58
2022/10/22 06:28:48;;;;;;;;;;;;;;;;;;4967380;28;19927;-57
2022/10/22 06:31:14;;;;;;;;;;;;;;;;;;4954202;28;20040;-57
2022/10/22 06:33:42;;;;;;;;;;;;;;;;;;4963503;28;19919;-57
2022/10/22 06:36:12;;;;;;;;;;;;;;;;;;4965249;28;19926;-57
2022/10/22 06:38:38;;;;;;;;;;;;;;;;;;4962728;28;20292;-57
2022/10/22 06:41:07;;;;;;;;;;;;;;;;;;4975518;28;19918;-57
2022/10/22 06:43:32;;;;;;;;;;;;;;;;;;4961627;28;20316;-57
2022/10/22 06:45:59;;;;;;;;;;;;;;;;;;4954394;28;19918;-57
2022/10/22 06:48:24;;;;;;;;;;;;;;;;;;4955588;28;20095;-57
2022/10/22 06:50:50;;;;;;;;;;;;;;;;;;4962872;28;19918;-57
2022/10/22 06:53:15;;;;;;;;;;;;;;;;;;4957626;28;19925;-57
2022/10/22 06:55:40;;;;;;;;;;;;;;;;;;4959539;28;19918;-57
2022/10/22 06:58:05;;;;;;;;;;;;;;;;;;4963126;28;19969;-57
2022/10/22 07:00:31;;;;;;;;;;;;;;;;;;4961222;28;20366;-57
2022/10/22 07:02:56;;;;;;;;;;;;;;;;;;4965911;28;19925;-57
2022/10/22 07:05:21;;;;;;;;;;;;;;;;;;4967445;28;20468;-57
2022/10/22 07:07:47;;;;;;;;;;;;;;;;;;4960156;28;19914;-51
2022/10/22 07:10:12;;;;;;;;;;;;;;;;;;4965921;28;19927;-51
2022/10/22 07:12:37;;;;;;;;;;;;;;;;;;4969708;28;19929;-54
2022/10/22 07:15:03;;;;;;;;;;;;;;;;;;4962997;28;19925;-53
2022/10/22 07:17:28;;;;;;;;;;;;;;;;;;4968635;28;19934;-53
2022/10/22 07:19:53;;;;;;;;;;;;;;;;;;4965615;28;20308;-57
2022/10/22 07:22:18;;;;;;;;;;;;;;;;;;4959853;28;20390;-59
2022/10/22 07:24:44;;;;;;;;;;;;;;;;;;4961902;28;19931;-57
2022/10/22 07:27:09;;;;;;;;;;;;;;;;;;4959597;28;19918;-57
2022/10/22 07:29:34;;;;;;;;;;;;;;;;;;4964237;28;19918;-56
2022/10/22 07:32:00;;;;;;;;;;;;;;;;;;4965914;28;19914;-57
2022/10/22 07:34:25;;;;;;;;;;;;;;;;;;4963021;28;19922;-57
2022/10/22 07:36:50;;;;;;;;;;;;;;;;;;4961390;28;19922;-57
2022/10/22 07:39:15;;;;;;;;;;;;;;;;;;4960977;28;19976;-57
2022/10/22 07:41:41;;;;;;;;;;;;;;;;;;4963529;28;19957;-57
2022/10/22 07:44:06;;;;;;;;;;;;;;;;;;4971556;28;19917;-57
2022/10/22 07:46:31;;;;;;;;;;;;;;;;;;4960858;28;19915;-57
2022/10/22 07:48:56;;;;;;;;;;;;;;;;;;4965799;28;20019;-57
2022/10/22 07:51:22;;;;;;;;;;;;;;;;;;4958382;28;20397;-57
2022/10/22 07:53:47;;;;;;;;;;;;;;;;;;4966865;28;19914;-57
2022/10/22 07:56:12;;;;;;;;;;;;;;;;;;4968238;28;19996;-57
2022/10/22 07:58:38;;;;;;;;;;;;;;;;;;4969718;28;20040;-57
2022/10/22 08:01:06;;;;;;;;;;;;;;;;;;4970486;28;19972;-57
2022/10/22 08:03:32;;;;;;;;;;;;;;;;;;4971904;28;19979;-57
2022/10/22 08:05:57;;;;;;;;;;;;;;;;;;4966688;28;19918;-58
2022/10/22 08:08:23;;;;;;;;;;;;;;;;;;4970803;28;20019;-56
2022/10/22 08:10:51;;;;;;;;;;;;;;;;;;4970410;28;20035;-57
2022/10/22 08:13:16;;;;;;;;;;;;;;;;;;4970126;28;19924;-56
2022/10/22 08:15:42;;;;;;;;;;;;;;;;;;4973859;28;19918;-56
2022/10/22 08:18:07;;;;;;;;;;;;;;;;;;4973596;28;20388;-56
2022/10/22 08:20:32;;;;;;;;;;;;;;;;;;4970143;28;19925;-57
2022/10/22 08:22:58;;;;;;;;;;;;;;;;;;4969035;28;19918;-57
2022/10/22 08:25:24;;;;;;;;;;;;;;;;;;4963550;28;20322;-58
2022/10/22 08:27:49;;;;;;;;;;;;;;;;;;4966670;28;20495;-57
2022/10/22 08:30:14;;;;;;;;;;;;;;;;;;4970426;28;20399;-57
2022/10/22 08:32:40;;;;;;;;;;;;;;;;;;4962870;28;20369;-58
2022/10/22 08:35:06;;;;;;;;;;;;;;;;;;4966343;28;19925;-58
2022/10/22 08:37:31;;;;;;;;;;;;;;;;;;4964080;28;20001;-58
2022/10/22 08:39:56;;;;;;;;;;;;;;;;;;4961105;28;19968;-57
2022/10/22 08:42:40;;;;;;;;;;;;;;;;;;4965688;28;19941;-58
2022/10/22 08:45:05;;;;;;;;;;;;;;;;;;4956434;28;20368;-57
2022/10/22 08:47:30;;;;;;;;;;;;;;;;;;4964974;28;19958;-58
2022/10/22 08:49:58;;;;;;;;;;;;;;;;;;4960825;28;20043;-58
2022/10/22 08:52:23;;;;;;;;;;;;;;;;;;4954255;28;20442;-57
2022/10/22 08:54:57;;;;;;;;;;;;;;;;;;4953327;28;19925;-58
2022/10/22 08:57:28;;;;;;;;;;;;;;;;;;4957029;28;20442;-58
2022/10/22 09:00:01;;;;;;;;;;;;;;;;;;4960513;28;19927;-57
2022/10/22 09:02:32;;;;;;;;;;;;;;;;;;4963273;28;20396;-58
2022/10/22 09:05:21;;;;;;;;;;;;;;;;;;4953293;28;20376;-57
2022/10/22 09:07:49;;;;;;;;;;;;;;;;;;4964834;28;19918;-56
2022/10/22 09:10:14;;;;;;;;;;;;;;;;;;4960058;28;19922;-58
2022/10/22 09:12:40;;;;;;;;;;;;;;;;;;4965652;28;20008;-58
2022/10/22 09:15:05;;;;;;;;;;;;;;;;;;4958572;28;19918;-57
2022/10/22 09:17:48;;;;;;;;;;;;;;;;;;4971924;28;20299;-57
2022/10/22 09:20:27;;;;;;;;;;;;;;;;;;4962632;28;20021;-57
2022/10/22 09:23:15;;;;;;;;;;;;;;;;;;4953602;28;19925;-57
2022/10/22 09:25:41;;;;;;;;;;;;;;;;;;4975334;28;19967;-56
2022/10/22 09:28:08;;;;;;;;;;;;;;;;;;4976600;28;19914;-56
2022/10/22 09:30:35;;;;;;;;;;;;;;;;;;4967618;28;19919;-56
2022/10/22 09:33:05;;;;;;;;;;;;;;;;;;4958697;28;19926;-58
2022/10/22 09:35:35;;;;;;;;;;;;;;;;;;4965270;28;19923;-58
2022/10/22 09:38:05;;;;;;;;;;;;;;;;;;4960787;28;19965;-56
2022/10/22 09:40:30;;;;;;;;;;;;;;;;;;4961559;28;20407;-57
2022/10/22 09:42:56;;;;;;;;;;;;;;;;;;4967037;28;19925;-55
2022/10/22 09:45:25;;;;;;;;;;;;;;;;;;4959515;28;19922;-56
2022/10/22 09:48:01;;;;;;;;;;;;;;;;;;4959222;28;19929;-55
2022/10/22 09:50:39;;;;;;;;;;;;;;;;;;4961699;28;20169;-57
2022/10/22 09:53:10;;;;;;;;;;;;;;;;;;4952603;28;19961;-56
2022/10/22 09:55:37;;;;;;;;;;;;;;;;;;4959913;28;19918;-56
2022/10/22 09:58:02;;;;;;;;;;;;;;;;;;4961633;28;19998;-56
2022/10/22 10:00:28;;;;;;;;;;;;;;;;;;4963517;28;20004;-56
2022/10/22 10:02:55;;;;;;;;;;;;;;;;;;4961625;28;20138;-56
2022/10/22 10:05:24;;;;;;;;;;;;;;;;;;4959098;28;19926;-56
2022/10/22 10:07:49;;;;;;;;;;;;;;;;;;4964680;28;19929;-56
2022/10/22 10:10:32;;;;;;;;;;;;;;;;;;4960267;28;19918;-56
2022/10/22 10:13:13;;;;;;;;;;;;;;;;;;4965091;28;19918;-57
2022/10/22 10:15:48;;;;;;;;;;;;;;;;;;4959419;28;19944;-56
2022/10/22 10:18:21;;;;;;;;;;;;;;;;;;4967838;28;20020;-56
2022/10/22 10:20:47;;;;;;;;;;;;;;;;;;4962771;28;20395;-56
2022/10/22 10:23:24;;;;;;;;;;;;;;;;;;4970924;28;19956;-56
2022/10/22 10:26:01;;;;;;;;;;;;;;;;;;4967635;28;19918;-56
2022/10/22 10:28:32;;;;;;;;;;;;;;;;;;4970559;28;20012;-57
2022/10/22 10:31:03;;;;;;;;;;;;;;;;;;4961974;28;20363;-57
2022/10/22 10:33:29;;;;;;;;;;;;;;;;;;4957038;28;19964;-56
2022/10/22 10:35:57;;;;;;;;;;;;;;;;;;4965355;28;20327;-58
2022/10/22 10:38:31;;;;;;;;;;;;;;;;;;4963100;28;19929;-57
2022/10/22 10:41:26;;;;;;;;;;;;;;;;;;4967274;28;19918;-58
2022/10/22 10:43:58;;;;;;;;;;;;;;;;;;4950409;28;20292;-58
2022/10/22 10:46:32;;;;;;;;;;;;;;;;;;4959731;28;19925;-57
2022/10/22 10:49:15;;;;;;;;;;;;;;;;;;4965059;28;19918;-58
2022/10/22 10:51:59;;;;;;;;;;;;;;;;;;4958945;28;19918;-58
2022/10/22 10:54:28;;;;;;;;;;;;;;;;;;4965399;28;19958;-58
2022/10/22 10:56:53;;;;;;;;;;;;;;;;;;4968686;28;20404;-58
2022/10/22 10:59:25;;;;;;;;;;;;;;;;;;4964522;28;19918;-58
2022/10/22 11:01:56;;;;;;;;;;;;;;;;;;4963219;28;19925;-56
2022/10/22 11:04:30;;;;;;;;;;;;;;;;;;4963052;28;19918;-57
2022/10/22 11:06:59;;;;;;;;;;;;;;;;;;4964315;28;19954;-57
2022/10/22 11:09:36;;;;;;;;;;;;;;;;;;4966958;28;19922;-57
2022/10/22 11:12:04;;;;;;;;;;;;;;;;;;4966655;28;20488;-57
2022/10/22 11:14:59;;;;;;;;;;;;;;;;;;4961013;28;20012;-55
2022/10/22 11:17:25;;;;;;;;;;;;;;;;;;4976224;28;19937;-52
2022/10/22 11:19:54;;;;;;;;;;;;;;;;;;4977949;28;19926;-53
2022/10/22 11:22:29;;;;;;;;;;;;;;;;;;4972070;28;19918;-53
2022/10/22 11:24:57;;;;;;;;;;;;;;;;;;4971750;28;19987;-53
2022/10/22 11:27:38;;;;;;;;;;;;;;;;;;4973660;28;19918;-58
2022/10/22 11:30:10;;;;;;;;;;;;;;;;;;4981155;28;19940;-58
2022/10/22 11:32:37;;;;;;;;;;;;;;;;;;5040452;28;20335;-58
2022/10/22 11:35:04;;;;;;;;;;;;;;;;;;4956321;28;20363;-58
2022/10/22 11:37:33;;;;;;;;;;;;;;;;;;4962861;28;20316;-58
2022/10/22 11:40:06;;;;;;;;;;;;;;;;;;4961370;28;20679;-58
2022/10/22 11:42:36;;;;;;;;;;;;;;;;;;4955548;28;19918;-56
2022/10/22 11:45:01;;;;;;;;;;;;;;;;;;4954108;28;19918;-58
2022/10/22 11:47:34;;;;;;;;;;;;;;;;;;4956653;28;19999;-58
2022/10/22 11:50:20;;;;;;;;;;;;;;;;;;4964780;28;20355;-58
2022/10/22 11:52:57;;;;;;;;;;;;;;;;;;4960346;28;19921;-58
2022/10/22 11:55:44;;;;;;;;;;;;;;;;;;4959630;28;19965;-58
2022/10/22 11:58:31;;;;;;;;;;;;;;;;;;4960983;28;19922;-58
2022/10/22 12:00:56;;;;;;;;;;;;;;;;;;4967051;28;19926;-59
2022/10/22 12:03:24;;;;;;;;;;;;;;;;;;4967215;28;19919;-58
2022/10/22 12:06:11;;;;;;;;;;;;;;;;;;4968208;28;20334;-58
2022/10/22 12:08:56;;;;;;;;;;;;;;;;;;4968082;28;19918;-58
2022/10/22 12:11:21;;;;;;;;;;;;;;;;;;4968699;28;20008;-58
2022/10/22 12:14:05;;;;;;;;;;;;;;;;;;4959995;28;20419;-59
2022/10/22 12:16:30;;;;;;;;;;;;;;;;;;4966113;28;20419;-58
2022/10/22 12:18:59;;;;;;;;;;;;;;;;;;4962949;28;20021;-58
2022/10/22 12:21:25;;;;;;;;;;;;;;;;;;4957538;28;19923;-58
2022/10/22 12:23:50;;;;;;;;;;;;;;;;;;4961515;28;19941;-59
2022/10/22 12:26:23;;;;;;;;;;;;;;;;;;4954476;28;19918;-58
2022/10/22 12:28:48;;;;;;;;;;;;;;;;;;4965810;28;20350;-58
2022/10/22 12:31:16;;;;;;;;;;;;;;;;;;4969481;28;20008;-59
2022/10/22 12:33:42;;;;;;;;;;;;;;;;;;4963724;28;19933;-58
2022/10/22 12:36:14;;;;;;;;;;;;;;;;;;4970759;28;19918;-59
2022/10/22 12:38:45;;;;;;;;;;;;;;;;;;4962459;28;19927;-59
2022/10/22 12:41:11;;;;;;;;;;;;;;;;;;4969629;28;19922;-58
2022/10/22 12:43:38;;;;;;;;;;;;;;;;;;4962291;28;20280;-58
2022/10/22 12:46:04;;;;;;;;;;;;;;;;;;4958410;28;20143;-59
2022/10/22 12:48:33;;;;;;;;;;;;;;;;;;4965785;28;20392;-58
2022/10/22 12:50:59;;;;;;;;;;;;;;;;;;4953042;28;19918;-59
2022/10/22 12:53:31;;;;;;;;;;;;;;;;;;4958126;28;20319;-58
2022/10/22 12:55:59;;;;;;;;;;;;;;;;;;4959867;28;20018;-59
2022/10/22 12:58:26;;;;;;;;;;;;;;;;;;4964774;28;19926;-58
2022/10/22 13:00:56;;;;;;;;;;;;;;;;;;4963329;28;19925;-58
2022/10/22 13:03:33;;;;;;;;;;;;;;;;;;4962769;28;19918;-58
2022/10/22 13:06:12;;;;;;;;;;;;;;;;;;4959169;28;19933;-58
2022/10/22 13:08:38;;;;;;;;;;;;;;;;;;4966531;28;19918;-57
2022/10/22 13:11:09;;;;;;;;;;;;;;;;;;4965345;28;19918;-58
2022/10/22 13:13:42;;;;;;;;;;;;;;;;;;4965950;28;19922;-57
2022/10/22 13:16:23;;;;;;;;;;;;;;;;;;4964689;28;20017;-57
2022/10/22 13:18:49;;;;;;;;;;;;;;;;;;4969377;28;19944;-58
2022/10/22 13:21:21;;;;;;;;;;;;;;;;;;4960587;28;19926;-57
2022/10/22 13:23:51;;;;;;;;;;;;;;;;;;4956151;28;20443;-58
2022/10/22 13:26:16;;;;;;;;;;;;;;;;;;4953895;28;19918;-57
2022/10/22 13:28:48;;;;;;;;;;;;;;;;;;4965377;28;19918;-58
2022/10/22 13:31:13;;;;;;;;;;;;;;;;;;4969031;28;19926;-57
2022/10/22 13:33:43;;;;;;;;;;;;;;;;;;4962126;28;20292;-58
2022/10/22 13:36:11;;;;;;;;;;;;;;;;;;4957579;28;19962;-57
2022/10/22 13:38:37;;;;;;;;;;;;;;;;;;4964571;28;20486;-58
2022/10/22 13:41:03;;;;;;;;;;;;;;;;;;4964358;28;20013;-58
2022/10/22 13:43:29;;;;;;;;;;;;;;;;;;4959571;28;20276;-57
2022/10/22 13:45:56;;;;;;;;;;;;;;;;;;4963747;28;19925;-57
2022/10/22 13:48:22;;;;;;;;;;;;;;;;;;4963034;28;19944;-57
2022/10/22 13:50:48;;;;;;;;;;;;;;;;;;4964505;28;19942;-58
2022/10/22 13:53:20;;;;;;;;;;;;;;;;;;4962696;28;20264;-58
2022/10/22 13:55:46;;;;;;;;;;;;;;;;;;4962032;28;19919;-58
2022/10/22 13:58:18;;;;;;;;;;;;;;;;;;4959725;28;19922;-57
2022/10/22 14:00:48;;;;;;;;;;;;;;;;;;4959474;28;20344;-58
2022/10/22 14:03:18;;;;;;;;;;;;;;;;;;4963603;28;19922;-58
2022/10/22 14:05:44;;;;;;;;;;;;;;;;;;4964771;28;19918;-57
2022/10/22 14:08:14;;;;;;;;;;;;;;;;;;4972152;28;19918;-57
2022/10/22 14:10:40;;;;;;;;;;;;;;;;;;4965845;28;19918;-57
2022/10/22 14:13:15;;;;;;;;;;;;;;;;;;4960567;28;19925;-58
2022/10/22 14:15:41;;;;;;;;;;;;;;;;;;4963957;28;20005;-54
2022/10/22 14:18:07;;;;;;;;;;;;;;;;;;4961108;28;20100;-55
2022/10/22 14:20:35;;;;;;;;;;;;;;;;;;4970177;28;19944;-55
2022/10/22 14:23:06;;;;;;;;;;;;;;;;;;4970220;28;19918;-55
2022/10/22 14:25:32;;;;;;;;;;;;;;;;;;4968640;28;20375;-55
2022/10/22 14:27:57;;;;;;;;;;;;;;;;;;4971136;28;19919;-56
2022/10/22 14:30:24;;;;;;;;;;;;;;;;;;4965768;28;20000;-55
2022/10/22 14:32:49;;;;;;;;;;;;;;;;;;4958831;28;19929;-56
2022/10/22 14:35:16;;;;;;;;;;;;;;;;;;4954127;28;19926;-55
2022/10/22 14:37:41;;;;;;;;;;;;;;;;;;4956978;28;19937;-56
2022/10/22 14:40:07;;;;;;;;;;;;;;;;;;4952962;28;19919;-55
2022/10/22 14:42:37;;;;;;;;;;;;;;;;;;4959528;28;19919;-55
2022/10/22 14:45:03;;;;;;;;;;;;;;;;;;4959180;28;20009;-55
2022/10/22 14:47:28;;;;;;;;;;;;;;;;;;4959290;28;20010;-55
2022/10/22 14:49:53;;;;;;;;;;;;;;;;;;4958526;28;21951;-55
2022/10/22 14:52:19;;;;;;;;;;;;;;;;;;4956978;28;19925;-56
2022/10/22 14:54:44;;;;;;;;;;;;;;;;;;4967934;28;20384;-55
2022/10/22 14:57:10;;;;;;;;;;;;;;;;;;4959655;28;19922;-56
2022/10/22 14:59:35;;;;;;;;;;;;;;;;;;4969316;28;19922;-54
2022/10/22 15:02:00;;;;;;;;;;;;;;;;;;4965533;28;19918;-54
2022/10/22 15:04:27;;;;;;;;;;;;;;;;;;4968743;28;19918;-54
2022/10/22 15:06:55;;;;;;;;;;;;;;;;;;4967592;28;19917;-55
2022/10/22 15:09:21;;;;;;;;;;;;;;;;;;4958214;28;19919;-54
2022/10/22 15:11:46;;;;;;;;;;;;;;;;;;4963419;28;19971;-55
2022/10/22 15:14:11;;;;;;;;;;;;;;;;;;4967587;28;20452;-54
2022/10/22 15:16:36;;;;;;;;;;;;;;;;;;4965175;28;19923;-54
2022/10/22 15:19:02;;;;;;;;;;;;;;;;;;4964722;28;19918;-58
2022/10/22 15:21:27;;;;;;;;;;;;;;;;;;4960629;28;20093;-59
2022/10/22 15:23:52;;;;;;;;;;;;;;;;;;4966446;28;19923;-58
2022/10/22 15:26:18;;;;;;;;;;;;;;;;;;4967415;28;19963;-59
2022/10/22 15:28:43;;;;;;;;;;;;;;;;;;4965542;28;19925;-58
2022/10/22 15:31:10;;;;;;;;;;;;;;;;;;4973534;28;19940;-59
2022/10/22 15:33:35;;;;;;;;;;;;;;;;;;4969395;28;19918;-59
2022/10/22 15:36:11;;;;;;;;;;;;;;;;;;4962089;28;19925;-59
2022/10/22 15:38:37;;;;;;;;;;;;;;;;;;4956859;28;20113;-59
2022/10/22 15:41:05;;;;;;;;;;;;;;;;;;4959261;28;20009;-58
2022/10/22 15:43:31;;;;;;;;;;;;;;;;;;4960608;28;20415;-58
2022/10/22 15:46:24;;;;;;;;;;;;;;;;;;4963342;28;19918;-59
2022/10/22 15:48:51;;;;;;;;;;;;;;;;;;4958728;28;19918;-59
2022/10/22 15:51:17;;;;;;;;;;;;;;;;;;4957055;28;19922;-59
2022/10/22 15:53:43;;;;;;;;;;;;;;;;;;4962767;28;20235;-58
2022/10/22 15:56:08;;;;;;;;;;;;;;;;;;4962812;28;20332;-58
2022/10/22 15:58:33;;;;;;;;;;;;;;;;;;4963395;28;20427;-58
2022/10/22 16:01:03;;;;;;;;;;;;;;;;;;4967911;28;19918;-58
2022/10/22 16:03:28;;;;;;;;;;;;;;;;;;4969892;28;20363;-58
2022/10/22 16:05:53;;;;;;;;;;;;;;;;;;4965883;28;19969;-59
2022/10/22 16:08:19;;;;;;;;;;;;;;;;;;4964668;28;19918;-58
2022/10/22 16:10:44;;;;;;;;;;;;;;;;;;4963934;28;19949;-59
2022/10/22 16:13:10;;;;;;;;;;;;;;;;;;4963019;28;19918;-58
2022/10/22 16:15:35;;;;;;;;;;;;;;;;;;4958435;28;19966;-58
2022/10/22 16:18:00;;;;;;;;;;;;;;;;;;4967177;28;20277;-58
2022/10/22 16:20:25;;;;;;;;;;;;;;;;;;4963745;28;20394;-58
2022/10/22 16:22:51;;;;;;;;;;;;;;;;;;4956830;28;19918;-58
2022/10/22 16:25:16;;;;;;;;;;;;;;;;;;4959465;28;19944;-58
2022/10/22 16:27:41;;;;;;;;;;;;;;;;;;4966245;28;20304;-58
2022/10/22 16:30:07;;;;;;;;;;;;;;;;;;4967115;28;19970;-58
2022/10/22 16:32:32;;;;;;;;;;;;;;;;;;4969649;28;19918;-58
2022/10/22 16:34:57;;;;;;;;;;;;;;;;;;4963346;28;19971;-58
2022/10/22 16:37:23;;;;;;;;;;;;;;;;;;4961597;28;19930;-58
2022/10/22 16:39:48;;;;;;;;;;;;;;;;;;4963956;28;19926;-58
2022/10/22 16:42:14;;;;;;;;;;;;;;;;;;4961805;28;19925;-58
2022/10/22 16:44:39;;;;;;;;;;;;;;;;;;4961389;28;19918;-58
2022/10/22 16:47:04;;;;;;;;;;;;;;;;;;4964573;28;19922;-58
2022/10/22 16:49:29;;;;;;;;;;;;;;;;;;4960271;28;19924;-58
2022/10/22 16:51:55;;;;;;;;;;;;;;;;;;4952252;28;19918;-58